Charlton Depot, Massachusetts
Current Conditions -  °F | °C
As of 2:54 PM on Friday 28 Nov 2014 (Local Time) from KORH Reporting Station
Few Clouds Few Clouds  
Wind Chill: 14°   Ceiling: Unl
Heat Index: 28°   Visibility: 10mi
Dew Point: 17°   Wind: 22mph
Humidity: 63%   Direction: 300°WNW
Pressure: 30.03"   Gusts: 28mph
Location:  42.17°N, 71.98°W
Report Text: KORH 281954Z 30019G24KT 10SM FEW030 M02/M08 A3003 RMK AO2 PK WND 30026/1859 SLP185 T10221083
Loading
Personal Weather Stations






























Interactive Weather Map New forecast layout! Learn more

10-Day Weather Forecast

Advertisements
Track Severe Weather on mobile